createdAt,value
2022-09-16T00:02:14.863Z,284.33149
2022-09-16T00:07:16.661Z,306.35294
2022-09-16T00:12:18.414Z,268.21053
2022-09-16T00:17:20.151Z,269.92593
2022-09-16T00:22:21.912Z,333.87342
2022-09-16T00:27:24.032Z,319.60976
2022-09-16T00:32:25.801Z,263.17098
2022-09-16T00:37:27.628Z,231.85047
2022-09-16T00:42:29.637Z,168
2022-09-16T00:47:31.302Z,142.70968
2022-09-16T00:52:33.105Z,116.06704
2022-09-16T00:57:35.184Z,92.07692
2022-09-16T01:02:36.858Z,86.92343
2022-09-16T01:07:38.543Z,77.04536
2022-09-16T01:12:40.346Z,72.87029
2022-09-16T01:17:42.173Z,66.70916
2022-09-16T01:22:43.797Z,57.65314
2022-09-16T01:27:45.447Z,53.41385
2022-09-16T01:32:47.114Z,51.13043
2022-09-16T01:37:48.637Z,50.39033
2022-09-16T01:42:50.172Z,49.66038
2022-09-16T01:47:51.726Z,49.29915
2022-09-16T01:52:53.224Z,49.66038
2022-09-16T01:57:54.905Z,49.11945
2022-09-16T02:02:56.488Z,48.58404
2022-09-16T02:07:58.060Z,48.40678
2022-09-16T02:12:59.597Z,49.66038
2022-09-16T02:18:01.009Z,50.94444
2022-09-16T02:23:02.485Z,51.50436
2022-09-16T02:28:04.160Z,55.79673
2022-09-16T02:33:05.613Z,55.79673
2022-09-16T02:38:07.087Z,60.88805
2022-09-16T02:43:08.567Z,59.78947
2022-09-16T02:48:10.093Z,58.07407
2022-09-16T02:53:11.619Z,57.65314
2022-09-16T02:58:13.212Z,58.49814
2022-09-16T03:03:14.768Z,59.14019
2022-09-16T03:08:16.321Z,58.49814
2022-09-16T03:13:17.830Z,57.65314
2022-09-16T03:18:19.268Z,58.49814
2022-09-16T03:23:20.701Z,58.92537
2022-09-16T03:28:22.348Z,64.54795
2022-09-16T03:33:23.795Z,62.46154
2022-09-16T03:38:25.253Z,64.3125
2022-09-16T03:43:26.841Z,65.02161
2022-09-16T03:48:28.287Z,69.71429
2022-09-16T03:53:29.805Z,70.74897
2022-09-16T03:58:31.675Z,75.62393
2022-09-16T04:03:33.598Z,75.62393
2022-09-16T04:08:35.270Z,74.78556
2022-09-16T04:13:36.978Z,76.18884
2022-09-16T04:18:38.594Z,77.62256
2022-09-16T04:23:40.086Z,76.47312
2022-09-16T04:28:41.806Z,71.53623
2022-09-16T04:33:43.257Z,68.19355
2022-09-16T04:38:44.850Z,58.92537
2022-09-16T04:43:46.431Z,47.52941
2022-09-16T04:48:48.115Z,47.3557
2022-09-16T04:53:49.613Z,46.66667
2022-09-16T04:58:51.816Z,45.98675
2022-09-16T05:03:53.285Z,44.65359
2022-09-16T05:08:54.794Z,44.1626
2022-09-16T05:13:56.398Z,45.65017
2022-09-16T05:18:57.927Z,51.31707
2022-09-16T05:23:59.538Z,57.65314
2022-09-16T05:29:01.279Z,68.44444
2022-09-16T05:34:02.744Z,77.91304
2022-09-16T05:39:22.129Z,62.23417
2022-09-16T05:44:25.110Z,75.62393
2022-09-16T05:49:26.607Z,92.43373
2022-09-16T05:54:28.225Z,94.61125
2022-09-16T05:59:29.878Z,103.58549
2022-09-16T06:04:31.317Z,105.67979
2022-09-16T06:09:32.779Z,162.43972
2022-09-16T06:14:34.390Z,148.65116
2022-09-16T06:19:35.849Z,184.625
2022-09-16T06:24:37.312Z,180.92308
2022-09-16T06:29:38.997Z,185.56863
2022-09-16T06:34:40.457Z,200.66667
2022-09-16T06:39:41.906Z,195.42857
2022-09-16T06:44:43.495Z,225.27854
2022-09-16T06:49:45.017Z,222.73303
2022-09-16T06:54:46.882Z,217.77778
2022-09-16T06:59:48.923Z,195.42857
2022-09-16T07:04:50.671Z,227.87097
2022-09-16T07:09:52.519Z,230.51163
2022-09-16T07:14:54.129Z,238.73684
2022-09-16T07:19:55.845Z,215.36564
2022-09-16T07:24:57.572Z,219
2022-09-16T07:30:00.327Z,240.15385
2022-09-16T07:35:01.963Z,338.87179
2022-09-16T07:40:03.591Z,440.77419
2022-09-16T07:45:05.281Z,432.88889
2022-09-16T07:50:06.814Z,514.37037
2022-09-16T07:55:08.371Z,440.77419
2022-09-16T08:00:11.510Z,421.51938
2022-09-16T08:05:13.214Z,553.90099
2022-09-16T08:10:14.965Z,457.33333
2022-09-16T08:15:16.818Z,519.70093
2022-09-16T08:20:18.605Z,592.42105
2022-09-16T08:25:20.472Z,519.70093
2022-09-16T08:30:22.866Z,628.44444
2022-09-16T08:35:24.683Z,636.13483
2022-09-16T08:40:26.472Z,592.42105
2022-09-16T08:45:28.139Z,566.22222
2022-09-16T08:50:29.769Z,504
2022-09-16T08:55:31.481Z,498.95495
2022-09-16T09:00:33.512Z,519.70093
2022-09-16T09:05:35.294Z,628.44444
2022-09-16T09:10:37.067Z,585.66667
2022-09-16T09:15:38.725Z,787.83562
2022-09-16T09:20:40.382Z,921.77778
2022-09-16T09:25:42.121Z,877.33333
2022-09-16T09:30:44.909Z,1254.6383
2022-09-16T09:35:46.790Z,1006.06897
2022-09-16T09:40:48.561Z,1024.70175
2022-09-16T09:45:50.445Z,1084.74074
2022-09-16T09:50:52.356Z,988.0678
2022-09-16T09:55:54.156Z,1044
2022-09-16T10:00:56.583Z,1064
2022-09-16T10:05:58.436Z,1344
2022-09-16T10:11:00.341Z,1312.88889
2022-09-16T10:16:02.322Z,1997.33333
2022-09-16T10:21:03.879Z,2225.48148
2022-09-16T10:26:05.479Z,2144
2022-09-16T10:31:08.145Z,2408
2022-09-16T10:36:09.670Z,2744
2022-09-16T10:41:11.161Z,2068.13793
2022-09-16T10:46:12.728Z,3366.22222
2022-09-16T10:51:14.211Z,5077.33333
2022-09-16T10:56:15.771Z,3366.22222
2022-09-16T11:01:19.232Z,3024
2022-09-16T11:06:22.227Z,3567.52941
2022-09-16T11:11:23.689Z,5544
2022-09-16T11:16:25.303Z,4682.46154
2022-09-16T11:21:26.863Z,4344
2022-09-16T11:26:28.437Z,4344
2022-09-16T11:31:30.165Z,5544
2022-09-16T11:36:31.834Z,6104
2022-09-16T11:41:33.311Z,2877.33333
2022-09-16T11:46:34.947Z,3794
2022-09-16T11:51:36.455Z,10210.66667
2022-09-16T11:56:38.008Z,3186.10526
2022-09-16T12:01:40.549Z,5077.33333
2022-09-16T12:06:42.135Z,4344
2022-09-16T12:11:43.674Z,4344
2022-09-16T12:16:45.218Z,4682.46154
2022-09-16T12:21:46.824Z,4050.66667
2022-09-16T12:26:48.388Z,6104
2022-09-16T12:31:51.305Z,4344
2022-09-16T12:36:53.133Z,4344
2022-09-16T12:41:54.583Z,6104
2022-09-16T12:46:56.316Z,10210.66667
2022-09-16T12:51:58.079Z,4344
2022-09-16T12:56:59.692Z,5077.33333
2022-09-16T13:02:02.466Z,7644
2022-09-16T13:07:04.160Z,4050.66667
2022-09-16T13:12:39.102Z,5544
2022-09-16T13:17:41.832Z,6104
2022-09-16T13:22:43.622Z,7644
2022-09-16T13:27:45.401Z,5544
2022-09-16T13:32:47.412Z,7644
2022-09-16T13:37:49.207Z,12264
2022-09-16T13:42:51.049Z,7644
2022-09-16T13:47:52.880Z,4682.46154
2022-09-16T13:52:54.536Z,3567.52941
2022-09-16T13:57:56.268Z,3024
2022-09-16T14:02:58.454Z,2225.48148
2022-09-16T14:08:00.291Z,1655.11111
2022-09-16T14:13:02.029Z,2744
2022-09-16T14:18:03.776Z,2408
2022-09-16T14:23:05.227Z,525.13208
2022-09-16T14:28:06.663Z,1704
2022-09-16T14:33:08.427Z,644
2022-09-16T14:38:22.794Z,1312.88889
2022-09-16T14:43:36.563Z,1344
2022-09-16T14:48:38.460Z,1176
2022-09-16T14:53:41.658Z,1254.6383
2022-09-16T14:58:50.414Z,1410.66667
2022-09-16T15:03:52.382Z,686.16867
2022-09-16T15:08:54.127Z,1084.74074
2022-09-16T15:13:55.951Z,988.0678
2022-09-16T15:18:57.911Z,1344
2022-09-16T15:23:59.657Z,1254.6383
2022-09-16T15:29:01.481Z,836.75362
2022-09-16T15:34:03.454Z,677.33333
2022-09-16T15:39:04.884Z,592.42105
2022-09-16T15:44:06.665Z,504
2022-09-16T15:49:08.392Z,393.63504
2022-09-16T15:54:09.854Z,436.8
2022-09-16T15:59:11.322Z,317.33333
2022-09-16T16:04:13.028Z,425.25
2022-09-16T16:09:14.445Z,530.66667
2022-09-16T16:14:16.005Z,620.92308
2022-09-16T16:19:17.723Z,400.2963
2022-09-16T16:24:19.522Z,331.42138
2022-09-16T16:29:21.151Z,620.92308
2022-09-16T16:34:23.141Z,407.15789
2022-09-16T16:39:24.782Z,440.77419
2022-09-16T16:44:26.516Z,677.33333
2022-09-16T16:49:28.255Z,479.65217
2022-09-16T16:54:29.902Z,628.44444
2022-09-16T16:59:31.654Z,380.87943
2022-09-16T17:04:33.618Z,444.81301
2022-09-16T17:09:35.365Z,393.63504
2022-09-16T17:14:37.085Z,269.92593
2022-09-16T17:19:38.859Z,202.82353
2022-09-16T17:24:40.650Z,143.35275
2022-09-16T17:29:42.405Z,181.83784
2022-09-16T17:34:44.341Z,234.56604
2022-09-16T17:39:46.171Z,250.46766
2022-09-16T17:44:48.035Z,207.24786
2022-09-16T17:49:49.951Z,212.99563
2022-09-16T17:54:51.676Z,164.78853
2022-09-16T17:59:53.503Z,172.99628
2022-09-16T18:04:55.291Z,212.99563
2022-09-16T18:09:57.185Z,212.99563
2022-09-16T18:14:58.970Z,195.42857
2022-09-16T18:20:04.977Z,168.81752
2022-09-16T18:25:08.427Z,138.32177
2022-09-16T18:30:10.019Z,155.68385
2022-09-16T18:35:11.870Z,135.30435
2022-09-16T18:40:13.400Z,115.58774
2022-09-16T18:45:14.973Z,104.41667
2022-09-16T18:50:16.436Z,93.87835
2022-09-16T18:55:17.886Z,89.62648
2022-09-16T19:00:19.550Z,87.58974
2022-09-16T19:05:21.292Z,89.28302
2022-09-16T19:10:22.833Z,90.66667
2022-09-16T19:15:24.283Z,92.43373
2022-09-16T19:20:25.743Z,95.35135
2022-09-16T19:25:27.190Z,96.09877
2022-09-16T19:30:28.820Z,103.58549
2022-09-16T19:35:30.679Z,130.10272
2022-09-16T19:40:32.785Z,154.23891
2022-09-16T19:45:34.534Z,162.43972
2022-09-16T19:50:36.492Z,144.65147
2022-09-16T19:55:38.150Z,136.5
2022-09-16T20:00:55.307Z,104
2022-09-16T20:05:58.717Z,109.5914
2022-09-16T20:11:00.476Z,99.55556
2022-09-16T20:16:02.384Z,109.14745
2022-09-16T20:21:04.197Z,99.55556
2022-09-16T20:26:06.058Z,90.31829
2022-09-16T20:31:07.879Z,86.92343
2022-09-16T20:36:09.761Z,101.54476
2022-09-16T20:41:11.212Z,101.54476
2022-09-16T20:46:12.949Z,110.03774
2022-09-16T20:51:14.900Z,117.52113
2022-09-16T20:56:16.683Z,105.67979
2022-09-16T21:01:18.501Z,108.26667
2022-09-16T21:06:20.508Z,91.01671
2022-09-16T21:11:22.299Z,99.55556
2022-09-16T21:16:24.287Z,107.39523
2022-09-16T21:21:26.174Z,107.82979
2022-09-16T21:26:27.916Z,94.2439
2022-09-16T21:31:29.797Z,89.62648
2022-09-16T21:36:31.900Z,88.94118
2022-09-16T21:41:33.645Z,88.2623
2022-09-16T21:46:35.402Z,89.97156
2022-09-16T21:51:37.245Z,90.66667
2022-09-16T21:56:39.020Z,91.01671
2022-09-16T22:01:40.822Z,91.36842
2022-09-16T22:06:42.803Z,91.72182
2022-09-16T22:11:44.409Z,94.98039
2022-09-16T22:16:46.162Z,92.07692
2022-09-16T22:21:47.960Z,97.23383
2022-09-16T22:26:49.713Z,107.39523
2022-09-16T22:31:51.606Z,155.68385
2022-09-16T22:36:53.614Z,256.69036
2022-09-16T22:41:55.381Z,226.56881
2022-09-16T22:46:57.253Z,250.46766
2022-09-16T22:51:59.086Z,252
2022-09-16T22:57:00.763Z,194.4065
2022-09-16T23:02:02.628Z,210.66667
2022-09-16T23:07:04.721Z,248.9505
2022-09-16T23:12:06.467Z,268.21053
2022-09-16T23:17:08.347Z,237.33333
2022-09-16T23:22:09.902Z,255.11111
2022-09-16T23:27:11.452Z,247.44828
2022-09-16T23:32:12.968Z,241.58454
2022-09-16T23:42:25.164Z,230.51163
2022-09-16T23:47:26.808Z,230.51163
2022-09-16T23:52:28.410Z,245.96078
2022-09-16T23:57:30.151Z,247.44828
